Liverpool Express — DDSD2 — position and weather

sailwx.info

Track history (hours):
 
Tides and Currents Weather Stations Pressure Air Temp Water Temp Dewpoint Dewpoint Depression Visibility Wind Speed Wind Dir Waves Ship Positions

Liverpool Express

Last reported at 2016-Jul-03 15:00 UTC. Time now 2016-Jul-24 14:47 UTC.
Position S 00°06' W 081°18'.
Warning: this ship's position is 20 days out of date.

Length 281 m; draft 11.6 m.

Type: Ship. MMSI: 218025000.

Wind from 240 at 15 knots

Waves 0.5 meters (2 feet), 2 second period

Barometer 1014.5 mb
Air temperature 28.0 ° C
Visibility: greater than 10.8 NM
Dewpoint 21.7 ° C
Water temperature 26.5 ° C

Date/timePositionNaut miles runAvg speedWind from/ knotsBaromVisibWave heightAir tempDewpointWater temp
2016-Jul-03 15:00S 00°06' W 081°18'55515.1 240 / 151014.510.8 0.528.021.726.5
2016-Jul-02 02:21N 08°59' W 079°35'1 1.5
2016-Jul-02 01:31N 08°60' W 079°36'0 0.4
2016-Jul-02 00:30N 09°00' W 079°36'1 1.2
2016-Jul-01 23:24N 09°01' W 079°37'0 0.2
2016-Jul-01 22:32N 09°01' W 079°37'2 2.1
2016-Jul-01 21:33N 09°02' W 079°39'8 5.5
2016-Jul-01 20:11N 09°07' W 079°45'5 7.7
2016-Jul-01 19:33N 09°09' W 079°49'8 8.1
2016-Jul-01 18:33N 09°15' W 079°55'0 0.2
2016-Jul-01 17:32N 09°15' W 079°55'0 0.0
2016-Jul-01 16:29N 09°15' W 079°55'0 0.1
2016-Jul-01 15:24N 09°15' W 079°55'0 0.1
2016-Jul-01 14:33N 09°15' W 079°55'0 0.1
2016-Jul-01 13:34N 09°15' W 079°55'1 1.5
2016-Jul-01 12:34N 09°16' W 079°55'0 0.5
2016-Jul-01 11:33N 09°17' W 079°55'0 0.0
2016-Jul-01 10:34N 09°17' W 079°55'0 0.4
2016-Jul-01 09:34N 09°17' W 079°55'7 6.7
2016-Jul-01 08:34N 09°24' W 079°55'3 2.5
2016-Jul-01 07:34N 09°27' W 079°55'2 2.2
2016-Jul-01 06:32N 09°27' W 079°53'0 0.0
2016-Jul-01 04:32N 09°27' W 079°52'0 0.1
2016-Jul-01 03:31N 09°27' W 079°52'0 0.0
2016-Jul-01 02:32N 09°27' W 079°52'0 0.1
2016-Jul-01 01:26N 09°27' W 079°52'0 0.2
2016-Jul-01 00:32N 09°27' W 079°52'0 0.1
2016-Jun-30 23:32N 09°27' W 079°52'0 0.0
2016-Jun-30 22:28N 09°27' W 079°52'0 0.0
2016-Jun-30 21:32N 09°27' W 079°52'0 0.0
2016-Jun-30 20:33N 09°27' W 079°52'0 0.4
2016-Jun-30 19:33N 09°26' W 079°53'5 4.9
2016-Jun-30 18:33N 09°21' W 079°53'0 0.0
2016-Jun-30 17:30N 09°21' W 079°53'0 0.0
2016-Jun-30 16:33N 09°21' W 079°53'0 0.0
2016-Jun-30 15:33N 09°21' W 079°53'0 0.0
2016-Jun-30 14:33N 09°21' W 079°53'0 0.0
2016-Jun-30 13:34N 09°21' W 079°53'0 0.0
2016-Jun-30 12:30N 09°21' W 079°53'1 0.6
2016-Jun-30 11:34N 09°22' W 079°53'6 5.5
2016-Jun-30 10:33N 09°27' W 079°54'6 5.8
2016-Jun-30 09:33N 09°33' W 079°52'7 6.6
2016-Jun-30 08:33N 09°39' W 079°50'8 7.8
2016-Jun-30 07:33N 09°44' W 079°44'8 8.4
2016-Jun-30 06:33N 09°45' W 079°35'9 8.7
2016-Jun-30 05:33N 09°47' W 079°27'9 8.7
2016-Jun-30 04:33N 09°48' W 079°18'8 8.2
2016-Jun-30 03:33N 09°49' W 079°10'9 8.5
2016-Jun-30 02:33N 09°50' W 079°01'  
2016-Jun-24 12:00N 23°18' W 062°42'   120 / 141021.110.8 28.021.727.8
Track history (hours):
 
Tides and Currents Weather Stations Pressure Air Temp Water Temp Dewpoint Dewpoint Depression Visibility Wind Speed Wind Dir Waves Ship Positions

Liverpool Express

Last reported at 2016-Jul-03 15:00 UTC. Time now 2016-Jul-24 14:47 UTC.
Position S 00°06' W 081°18'.
Warning: this ship's position is 20 days out of date.

Length 281 m; draft 11.6 m.

Type: Ship. MMSI: 218025000.

Wind from 240 at 15 knots

Waves 0.5 meters (2 feet), 2 second period

Barometer 1014.5 mb
Air temperature 28.0 ° C
Visibility: greater than 10.8 NM
Dewpoint 21.7 ° C
Water temperature 26.5 ° C

Date/timePositionNaut miles runAvg speedWind from/ knotsBaromVisibWave heightAir tempDewpointWater temp
2016-Jul-03 15:00S 00°06' W 081°18'55515.1 240 / 151014.510.8 0.528.021.726.5
2016-Jul-02 02:21N 08°59' W 079°35'1 1.5
2016-Jul-02 01:31N 08°60' W 079°36'0 0.4
2016-Jul-02 00:30N 09°00' W 079°36'1 1.2
2016-Jul-01 23:24N 09°01' W 079°37'0 0.2
2016-Jul-01 22:32N 09°01' W 079°37'2 2.1
2016-Jul-01 21:33N 09°02' W 079°39'8 5.5
2016-Jul-01 20:11N 09°07' W 079°45'5 7.7
2016-Jul-01 19:33N 09°09' W 079°49'8 8.1
2016-Jul-01 18:33N 09°15' W 079°55'0 0.2
2016-Jul-01 17:32N 09°15' W 079°55'0 0.0
2016-Jul-01 16:29N 09°15' W 079°55'0 0.1
2016-Jul-01 15:24N 09°15' W 079°55'0 0.1
2016-Jul-01 14:33N 09°15' W 079°55'0 0.1
2016-Jul-01 13:34N 09°15' W 079°55'1 1.5
2016-Jul-01 12:34N 09°16' W 079°55'0 0.5
2016-Jul-01 11:33N 09°17' W 079°55'0 0.0
2016-Jul-01 10:34N 09°17' W 079°55'0 0.4
2016-Jul-01 09:34N 09°17' W 079°55'7 6.7
2016-Jul-01 08:34N 09°24' W 079°55'3 2.5
2016-Jul-01 07:34N 09°27' W 079°55'2 2.2
2016-Jul-01 06:32N 09°27' W 079°53'0 0.0
2016-Jul-01 04:32N 09°27' W 079°52'0 0.1
2016-Jul-01 03:31N 09°27' W 079°52'0 0.0
2016-Jul-01 02:32N 09°27' W 079°52'0 0.1
2016-Jul-01 01:26N 09°27' W 079°52'0 0.2
2016-Jul-01 00:32N 09°27' W 079°52'0 0.1
2016-Jun-30 23:32N 09°27' W 079°52'0 0.0
2016-Jun-30 22:28N 09°27' W 079°52'0 0.0
2016-Jun-30 21:32N 09°27' W 079°52'0 0.0
2016-Jun-30 20:33N 09°27' W 079°52'0 0.4
2016-Jun-30 19:33N 09°26' W 079°53'5 4.9
2016-Jun-30 18:33N 09°21' W 079°53'0 0.0
2016-Jun-30 17:30N 09°21' W 079°53'0 0.0
2016-Jun-30 16:33N 09°21' W 079°53'0 0.0
2016-Jun-30 15:33N 09°21' W 079°53'0 0.0
2016-Jun-30 14:33N 09°21' W 079°53'0 0.0
2016-Jun-30 13:34N 09°21' W 079°53'0 0.0
2016-Jun-30 12:30N 09°21' W 079°53'1 0.6
2016-Jun-30 11:34N 09°22' W 079°53'6 5.5
2016-Jun-30 10:33N 09°27' W 079°54'6 5.8
2016-Jun-30 09:33N 09°33' W 079°52'7 6.6
2016-Jun-30 08:33N 09°39' W 079°50'8 7.8
2016-Jun-30 07:33N 09°44' W 079°44'8 8.4
2016-Jun-30 06:33N 09°45' W 079°35'9 8.7
2016-Jun-30 05:33N 09°47' W 079°27'9 8.7
2016-Jun-30 04:33N 09°48' W 079°18'8 8.2
2016-Jun-30 03:33N 09°49' W 079°10'9 8.5
2016-Jun-30 02:33N 09°50' W 079°01'  
2016-Jun-24 12:00N 23°18' W 062°42'   120 / 141021.110.8 28.021.727.8

Dump ship's entire track history